Time;durP1;ratioP1;P1;durP2;ratioP2;P2;SDS_P1;SDS_P2;PMS_P1;PMS_P2;Temp;Humidity;BMP_temperature;BMP_pressure;BME280_temperature;BME280_humidity;BME280_pressure;Samples;Min_cycle;Max_cycle;Signal;HPM_P1;HPM_P2
2023/04/17 00:00:37;;;;;;;1.58;0.60;;;12.80;90.50;;;;;;6247480;22;20086;-78
2023/04/17 00:03:04;;;;;;;1.55;0.85;;;12.80;90.60;;;;;;6274549;22;20739;-79
2023/04/17 00:05:32;;;;;;;9.38;1.33;;;12.80;90.70;;;;;;6247684;22;20482;-79
2023/04/17 00:08:01;;;;;;;2.15;0.60;;;12.80;90.50;;;;;;6223668;22;20654;-78
2023/04/17 00:10:28;;;;;;;1.20;0.47;;;12.80;90.50;;;;;;6222512;22;20024;-78
2023/04/17 00:12:55;;;;;;;1.35;0.50;;;12.80;90.60;;;;;;6221793;22;20027;-78
2023/04/17 00:15:23;;;;;;;1.80;0.40;;;12.80;90.50;;;;;;6222055;22;20055;-78
2023/04/17 00:17:50;;;;;;;1.88;0.63;;;12.80;90.50;;;;;;6247324;22;20098;-78
2023/04/17 00:20:17;;;;;;;1.40;0.70;;;12.80;90.40;;;;;;6222414;22;20023;-78
2023/04/17 00:22:44;;;;;;;0.70;0.47;;;12.80;90.30;;;;;;6222016;22;20019;-78
2023/04/17 00:25:13;;;;;;;2.40;0.70;;;12.80;90.30;;;;;;6222103;22;20673;-78
2023/04/17 00:27:41;;;;;;;0.77;0.40;;;12.70;90.50;;;;;;6222930;22;20115;-78
2023/04/17 00:30:09;;;;;;;0.70;0.30;;;12.70;90.40;;;;;;6221389;22;20051;-79
2023/04/17 00:32:36;;;;;;;1.17;0.65;;;12.70;90.50;;;;;;6221637;22;20019;-78
2023/04/17 00:35:04;;;;;;;1.15;0.50;;;12.80;90.40;;;;;;6222306;22;20027;-78
2023/04/17 00:37:31;;;;;;;0.80;0.35;;;12.80;90.40;;;;;;6246168;22;20024;-80
2023/04/17 00:39:58;;;;;;;1.20;0.70;;;12.80;90.30;;;;;;6222071;22;20050;-78
2023/04/17 00:42:26;;;;;;;3.90;0.52;;;12.80;90.30;;;;;;6222366;22;20741;-78
2023/04/17 00:44:53;;;;;;;1.45;0.60;;;12.80;90.40;;;;;;6222720;22;20023;-78
2023/04/17 00:47:21;;;;;;;2.65;0.65;;;12.80;90.10;;;;;;6221768;22;20019;-79
2023/04/17 00:49:50;;;;;;;1.15;0.40;;;12.80;90.20;;;;;;6220877;22;20026;-79
2023/04/17 00:52:27;;;;;;;1.25;0.60;;;12.80;90.20;;;;;;6246197;22;20028;-78
2023/04/17 00:54:56;;;;;;;1.67;0.63;;;12.80;90.60;;;;;;6220730;22;20122;-78
2023/04/17 00:57:24;;;;;;;2.08;0.65;;;12.70;90.40;;;;;;6209790;22;20073;-78
2023/04/17 00:59:52;;;;;;;1.52;0.52;;;12.70;90.30;;;;;;6221187;22;20066;-79
2023/04/17 01:02:19;;;;;;;1.17;0.40;;;12.70;90.40;;;;;;6246604;22;20019;-78
2023/04/17 01:04:46;;;;;;;1.65;0.45;;;12.70;90.60;;;;;;6220779;22;20452;-79
2023/04/17 01:07:14;;;;;;;1.10;0.50;;;12.70;90.40;;;;;;6245976;22;20650;-78
2023/04/17 01:09:41;;;;;;;0.88;0.43;;;12.70;90.20;;;;;;6221472;22;20024;-79
2023/04/17 01:12:20;;;;;;;2.80;0.47;;;12.70;90.30;;;;;;6221235;22;20027;-78
2023/04/17 01:14:56;;;;;;;1.33;0.40;;;12.70;90.30;;;;;;6245586;22;20501;-78
2023/04/17 01:17:27;;;;;;;1.35;0.50;;;12.70;90.30;;;;;;6221083;22;20090;-79
2023/04/17 01:19:56;;;;;;;2.35;0.60;;;12.70;90.20;;;;;;6219400;22;20030;-78
2023/04/17 01:22:23;;;;;;;1.67;0.60;;;12.70;90.30;;;;;;6220416;22;20077;-79
2023/04/17 01:24:55;;;;;;;1.23;0.50;;;12.70;90.40;;;;;;6246091;22;20027;-78
2023/04/17 01:27:24;;;;;;;1.05;0.52;;;12.60;90.40;;;;;;6209771;22;20024;-78
2023/04/17 01:29:51;;;;;;;1.98;0.80;;;12.70;90.40;;;;;;6221115;22;20107;-78
2023/04/17 01:32:19;;;;;;;1.38;0.50;;;12.60;90.40;;;;;;6220661;22;20024;-79
2023/04/17 01:34:46;;;;;;;1.48;0.50;;;12.60;90.30;;;;;;6245991;22;20522;-78
2023/04/17 01:37:14;;;;;;;1.42;0.50;;;12.70;90.20;;;;;;6220563;22;20027;-78
2023/04/17 01:39:41;;;;;;;1.88;0.40;;;12.60;90.40;;;;;;6246417;22;20015;-80
2023/04/17 01:42:08;;;;;;;1.30;0.52;;;12.60;90.80;;;;;;6221188;22;20023;-78
2023/04/17 01:44:36;;;;;;;1.88;0.60;;;12.60;90.40;;;;;;6221701;22;20023;-78
2023/04/17 01:47:03;;;;;;;2.10;0.75;;;12.60;90.40;;;;;;6221615;22;20118;-78
2023/04/17 01:49:30;;;;;;;0.85;0.40;;;12.60;90.30;;;;;;6246619;22;20043;-78
2023/04/17 01:51:57;;;;;;;1.05;0.50;;;12.60;90.40;;;;;;6220775;22;20024;-78
2023/04/17 01:54:24;;;;;;;3.03;0.82;;;12.60;90.40;;;;;;6221052;22;20328;-79
2023/04/17 01:56:52;;;;;;;1.27;0.40;;;12.60;90.40;;;;;;6222569;22;20012;-78
2023/04/17 01:59:20;;;;;;;2.25;0.55;;;12.60;90.40;;;;;;6220419;22;20020;-78
2023/04/17 02:01:49;;;;;;;4.28;0.60;;;12.60;90.30;;;;;;6221158;22;20077;-79
2023/04/17 02:04:17;;;;;;;1.35;0.40;;;12.60;90.30;;;;;;6221149;22;20054;-78
2023/04/17 02:06:44;;;;;;;1.10;0.50;;;12.60;90.30;;;;;;6221035;22;20015;-79
2023/04/17 02:09:11;;;;;;;1.73;0.55;;;12.60;90.40;;;;;;6221989;22;20102;-78
2023/04/17 02:11:39;;;;;;;1.55;0.60;;;12.60;90.30;;;;;;6219598;22;20028;-79
2023/04/17 02:14:06;;;;;;;2.20;0.40;;;12.60;90.40;;;;;;6220366;22;20023;-80
2023/04/17 02:16:33;;;;;;;1.27;0.70;;;12.60;90.50;;;;;;6220782;22;20762;-78
2023/04/17 02:19:01;;;;;;;2.13;0.70;;;12.60;90.40;;;;;;6245603;22;20012;-78
2023/04/17 02:21:30;;;;;;;2.03;0.52;;;12.50;90.90;;;;;;6245651;22;20099;-78
2023/04/17 02:23:57;;;;;;;1.95;0.55;;;12.50;91.10;;;;;;6246201;22;20024;-79
2023/04/17 02:26:27;;;;;;;1.25;0.50;;;12.50;91.10;;;;;;6221444;22;20027;-78
2023/04/17 02:28:54;;;;;;;1.33;0.82;;;12.50;91.20;;;;;;6246705;22;20030;-79
2023/04/17 02:31:22;;;;;;;1.23;0.57;;;12.50;91.20;;;;;;6247377;22;20019;-78
2023/04/17 02:33:50;;;;;;;2.05;0.30;;;12.40;91.20;;;;;;6248657;22;20016;-78
2023/04/17 02:36:17;;;;;;;1.60;0.57;;;12.40;91.10;;;;;;6223289;22;20024;-78
2023/04/17 02:38:45;;;;;;;1.35;0.60;;;12.40;91.10;;;;;;6275778;22;20020;-78
2023/04/17 02:41:12;;;;;;;1.13;0.50;;;12.40;91.00;;;;;;6248255;22;20102;-79
2023/04/17 02:43:40;;;;;;;1.40;0.68;;;12.40;90.90;;;;;;6223073;22;20023;-79
2023/04/17 02:46:09;;;;;;;1.13;0.40;;;12.40;91.00;;;;;;6223928;22;20080;-78
2023/04/17 02:48:36;;;;;;;2.30;0.80;;;12.40;91.00;;;;;;6223393;22;20024;-78
2023/04/17 02:51:03;;;;;;;1.45;0.60;;;12.40;91.20;;;;;;6223837;22;20085;-78
2023/04/17 02:53:30;;;;;;;1.20;0.55;;;12.30;91.70;;;;;;6223131;22;20074;-78
2023/04/17 02:55:57;;;;;;;1.45;0.75;;;12.30;91.80;;;;;;6223323;22;20402;-79
2023/04/17 02:58:25;;;;;;;1.42;0.60;;;12.30;91.80;;;;;;6222951;22;20050;-79
2023/04/17 03:00:59;;;;;;;1.15;0.60;;;12.20;92.00;;;;;;6221874;22;20023;-78
2023/04/17 03:03:33;;;;;;;1.65;0.63;;;12.20;91.80;;;;;;6221822;22;20103;-79
2023/04/17 03:06:04;;;;;;;1.15;0.65;;;12.20;92.00;;;;;;6223319;22;20058;-79
2023/04/17 03:08:34;;;;;;;2.13;0.75;;;12.20;91.90;;;;;;6223032;22;20098;-79
2023/04/17 03:11:02;;;;;;;2.05;0.82;;;12.20;92.00;;;;;;6222943;22;20026;-78
2023/04/17 03:13:30;;;;;;;1.67;0.80;;;12.20;92.10;;;;;;6247282;22;20024;-78
2023/04/17 03:15:57;;;;;;;2.35;1.00;;;12.20;92.10;;;;;;6247904;22;20020;-78
2023/04/17 03:18:25;;;;;;;1.73;0.90;;;12.20;92.30;;;;;;6222635;22;20024;-79
2023/04/17 03:20:52;;;;;;;2.03;0.50;;;12.10;92.30;;;;;;6222530;22;20030;-78
2023/04/17 03:23:19;;;;;;;1.20;0.60;;;12.10;92.10;;;;;;6222293;22;20022;-78
2023/04/17 03:25:47;;;;;;;0.90;0.50;;;12.20;92.00;;;;;;6222085;22;20059;-78
2023/04/17 03:28:15;;;;;;;1.52;0.82;;;12.10;92.00;;;;;;6222751;22;20022;-78
2023/04/17 03:30:43;;;;;;;2.03;0.45;;;12.10;92.10;;;;;;6248506;22;20019;-78
2023/04/17 03:33:10;;;;;;;2.13;0.80;;;12.10;92.00;;;;;;6246956;22;20393;-78
2023/04/17 03:35:37;;;;;;;1.52;0.55;;;12.10;92.10;;;;;;6222613;22;20019;-78
2023/04/17 03:38:07;;;;;;;2.05;0.88;;;12.10;91.90;;;;;;6222543;22;20020;-78
2023/04/17 03:40:34;;;;;;;1.23;0.60;;;12.10;91.90;;;;;;6249057;22;20412;-78
2023/04/17 03:43:02;;;;;;;1.27;0.50;;;12.10;92.00;;;;;;6222247;22;20031;-78
2023/04/17 03:45:30;;;;;;;2.15;0.77;;;12.10;92.00;;;;;;6247957;22;20358;-78
2023/04/17 03:47:57;;;;;;;2.60;1.55;;;12.10;91.80;;;;;;6222098;22;20019;-78
2023/04/17 03:50:24;;;;;;;1.55;0.55;;;12.10;92.00;;;;;;6248002;22;20401;-78
2023/04/17 03:52:56;;;;;;;1.55;0.60;;;12.10;92.10;;;;;;6224280;22;20620;-78
2023/04/17 03:55:25;;;;;;;1.85;0.82;;;12.00;92.30;;;;;;6222863;22;20026;-77
2023/04/17 03:57:52;;;;;;;3.53;0.93;;;12.00;92.20;;;;;;6222643;22;20015;-79
2023/04/17 04:00:20;;;;;;;3.13;1.02;;;12.00;92.10;;;;;;6220220;22;20653;-79
2023/04/17 04:02:51;;;;;;;1.30;0.70;;;12.00;92.20;;;;;;6222458;22;20019;-78
2023/04/17 04:05:24;;;;;;;2.90;0.70;;;12.00;92.20;;;;;;6222619;22;20019;-79
2023/04/17 04:07:52;;;;;;;1.75;0.60;;;12.00;92.30;;;;;;6223387;22;20027;-78
2023/04/17 04:10:25;;;;;;;2.55;0.73;;;12.00;92.10;;;;;;6223494;22;20019;-78
2023/04/17 04:12:54;;;;;;;5.88;1.35;;;12.00;92.20;;;;;;6221867;22;20023;-78
2023/04/17 04:15:23;;;;;;;2.17;0.77;;;12.00;92.20;;;;;;6221098;22;20047;-78
2023/04/17 04:17:54;;;;;;;1.30;0.80;;;12.00;92.20;;;;;;6223252;22;20020;-78
2023/04/17 04:20:22;;;;;;;3.33;1.27;;;12.00;92.50;;;;;;6221602;22;20030;-78
2023/04/17 04:22:56;;;;;;;2.50;0.80;;;12.00;92.30;;;;;;6222164;22;20027;-78
2023/04/17 04:25:24;;;;;;;2.63;0.52;;;12.00;92.30;;;;;;6220447;22;20058;-78
2023/04/17 04:28:07;;;;;;;2.40;0.75;;;11.90;92.40;;;;;;6225308;22;20023;-78
2023/04/17 04:30:37;;;;;;;2.22;1.10;;;12.00;92.20;;;;;;6246304;22;20098;-78
2023/04/17 04:33:13;;;;;;;1.95;0.93;;;12.00;92.30;;;;;;6222473;22;20012;-79
2023/04/17 04:35:40;;;;;;;2.42;0.70;;;11.90;92.30;;;;;;6246958;22;20027;-78
2023/04/17 04:38:12;;;;;;;1.63;0.80;;;11.90;92.40;;;;;;6221598;22;20020;-78
2023/04/17 04:40:42;;;;;;;1.45;0.60;;;11.90;92.30;;;;;;6246283;22;20664;-78
2023/04/17 04:43:10;;;;;;;1.73;0.50;;;12.00;92.30;;;;;;6221199;22;20117;-78
2023/04/17 04:45:40;;;;;;;1.92;0.93;;;12.00;92.40;;;;;;6221793;22;20054;-78
2023/04/17 04:48:07;;;;;;;2.38;1.10;;;11.90;92.30;;;;;;6245646;22;20019;-79
2023/04/17 04:50:35;;;;;;;2.85;0.85;;;11.90;92.30;;;;;;6219160;22;20023;-79
2023/04/17 04:53:02;;;;;;;2.45;0.70;;;12.00;92.40;;;;;;6243854;22;20062;-78
2023/04/17 04:55:50;;;;;;;1.92;0.90;;;12.00;92.50;;;;;;6223530;22;20678;-78
2023/04/17 04:58:17;;;;;;;1.80;0.68;;;12.60;92.60;;;;;;6220618;22;20050;-79
2023/04/17 05:00:46;;;;;;;1.38;0.70;;;12.00;92.70;;;;;;6219732;22;20359;-78
2023/04/17 05:03:22;;;;;;;1.60;0.85;;;12.00;92.50;;;;;;6221699;22;20023;-79
2023/04/17 05:05:49;;;;;;;7.22;0.85;;;12.00;92.90;;;;;;6220591;22;20107;-79
2023/04/17 05:08:19;;;;;;;1.65;0.85;;;12.00;92.70;;;;;;6221818;22;20138;-78
2023/04/17 05:10:55;;;;;;;2.10;0.88;;;12.00;92.90;;;;;;6223640;22;20434;-77
2023/04/17 05:13:22;;;;;;;1.73;0.80;;;12.00;92.90;;;;;;6221761;22;20429;-77
2023/04/17 05:15:50;;;;;;;2.10;0.82;;;12.00;92.80;;;;;;6245887;22;20027;-77
2023/04/17 05:18:22;;;;;;;1.53;0.83;;;12.00;92.70;;;;;;6246585;22;20019;-78
2023/04/17 05:20:50;;;;;;;1.40;0.80;;;12.00;92.50;;;;;;6246773;22;20015;-78
2023/04/17 05:23:20;;;;;;;1.98;0.70;;;12.00;92.80;;;;;;6246607;22;20355;-77
2023/04/17 05:25:49;;;;;;;2.17;0.93;;;12.00;92.40;;;;;;6217834;22;20023;-77
2023/04/17 05:28:16;;;;;;;1.85;1.08;;;12.10;92.70;;;;;;6220845;22;20047;-77
2023/04/17 05:30:44;;;;;;;2.15;0.88;;;12.00;92.50;;;;;;6245303;22;20024;-77
2023/04/17 05:33:20;;;;;;;2.38;1.00;;;12.00;92.40;;;;;;6220979;22;20769;-77
2023/04/17 05:35:50;;;;;;;3.13;1.10;;;12.10;92.40;;;;;;6220587;22;20754;-78
2023/04/17 05:38:21;;;;;;;2.40;0.80;;;12.10;92.20;;;;;;6243930;22;20019;-77
2023/04/17 05:40:48;;;;;;;4.00;1.75;;;12.10;92.20;;;;;;6219103;22;20714;-77
2023/04/17 05:43:15;;;;;;;2.75;0.93;;;12.10;92.20;;;;;;6219887;22;20405;-77
2023/04/17 05:45:43;;;;;;;2.67;0.98;;;12.10;91.90;;;;;;6243853;22;20026;-77
2023/04/17 05:48:10;;;;;;;4.15;1.15;;;12.10;91.80;;;;;;6216702;22;20398;-79
2023/04/17 05:50:38;;;;;;;2.15;0.90;;;12.10;91.90;;;;;;6240669;22;20475;-79
2023/04/17 05:53:06;;;;;;;3.38;1.00;;;12.10;92.00;;;;;;6245658;22;20050;-78
2023/04/17 05:55:44;;;;;;;2.78;1.00;;;12.10;92.00;;;;;;6221875;22;20019;-78
2023/04/17 05:58:12;;;;;;;2.85;1.08;;;12.20;91.80;;;;;;6220701;22;20019;-78
2023/04/17 06:00:43;;;;;;;1.95;0.90;;;12.20;91.80;;;;;;6220750;22;20099;-77
2023/04/17 06:03:13;;;;;;;4.43;1.00;;;12.20;91.70;;;;;;6219571;22;20028;-78
2023/04/17 06:05:46;;;;;;;3.50;1.33;;;12.30;91.70;;;;;;6243894;22;20482;-78
2023/04/17 06:08:13;;;;;;;2.70;1.27;;;12.30;91.60;;;;;;6218988;22;20750;-78
2023/04/17 06:10:40;;;;;;;3.15;0.98;;;12.40;91.50;;;;;;6219972;22;20028;-78
2023/04/17 06:13:07;;;;;;;3.25;1.17;;;12.40;91.20;;;;;;6219885;22;20026;-77
2023/04/17 06:15:35;;;;;;;2.20;1.38;;;12.50;91.50;;;;;;6245128;22;20023;-77
2023/04/17 06:18:02;;;;;;;1.95;1.27;;;12.60;91.20;;;;;;6218620;22;20047;-77
2023/04/17 06:20:29;;;;;;;2.10;1.33;;;12.60;91.20;;;;;;6272170;22;20023;-78
2023/04/17 06:22:56;;;;;;;2.28;1.10;;;12.70;90.90;;;;;;6220209;22;20023;-77
2023/04/17 06:25:23;;;;;;;3.10;0.98;;;12.80;91.00;;;;;;6168284;22;1195800;-77
2023/04/17 06:27:50;;;;;;;2.38;1.40;;;12.80;90.70;;;;;;6220813;22;20050;-78
2023/04/17 06:30:17;;;;;;;3.53;1.13;;;12.90;90.80;;;;;;6245618;22;20028;-78
2023/04/17 06:32:51;;;;;;;2.65;1.23;;;13.00;90.60;;;;;;6221524;22;20102;-78
2023/04/17 06:35:19;;;;;;;2.88;1.13;;;13.00;90.50;;;;;;6221852;22;20098;-78
2023/04/17 06:37:51;;;;;;;3.17;1.30;;;13.10;90.90;;;;;;6222326;22;20019;-78
2023/04/17 06:40:18;;;;;;;2.08;1.20;;;13.20;90.70;;;;;;6245666;22;20703;-77
2023/04/17 06:42:45;;;;;;;3.63;1.60;;;13.20;90.20;;;;;;6274422;22;20030;-78
2023/04/17 06:45:18;;;;;;;4.65;1.70;;;13.30;90.10;;;;;;6224523;22;20023;-77
2023/04/17 06:47:45;;;;;;;1.50;0.90;;;13.40;89.90;;;;;;6220671;22;20019;-77
2023/04/17 06:50:17;;;;;;;2.72;1.30;;;13.50;90.00;;;;;;6221132;22;20466;-78
2023/04/17 06:52:44;;;;;;;3.67;1.20;;;13.60;90.10;;;;;;6220707;22;20802;-78
2023/04/17 06:55:11;;;;;;;1.80;1.23;;;13.70;89.90;;;;;;6220577;22;20102;-78
2023/04/17 06:57:38;;;;;;;3.63;1.20;;;13.80;89.60;;;;;;6220602;22;20023;-78
2023/04/17 07:00:06;;;;;;;4.95;1.48;;;13.90;89.50;;;;;;6244804;22;20027;-78
2023/04/17 07:02:33;;;;;;;5.20;1.30;;;14.00;88.70;;;;;;6246335;22;20702;-78
2023/04/17 07:05:00;;;;;;;3.90;1.50;;;14.00;88.30;;;;;;6246476;22;20030;-78
2023/04/17 07:07:29;;;;;;;2.40;1.30;;;14.20;87.60;;;;;;6220645;22;20027;-77
2023/04/17 07:09:56;;;;;;;4.40;1.45;;;14.30;87.90;;;;;;6222567;22;20110;-78
2023/04/17 07:12:23;;;;;;;3.83;1.50;;;14.40;87.40;;;;;;6255261;22;20011;-78
2023/04/17 07:14:50;;;;;;;4.35;1.58;;;14.70;87.10;;;;;;6219404;22;20031;-78
2023/04/17 07:17:18;;;;;;;3.22;1.67;;;15.00;85.80;;;;;;6218106;22;20023;-79
2023/04/17 07:19:45;;;;;;;4.68;1.40;;;15.30;84.80;;;;;;6221875;22;20664;-76
2023/04/17 07:22:12;;;;;;;3.13;1.58;;;15.50;83.90;;;;;;6275342;22;20443;-78
2023/04/17 07:24:40;;;;;;;2.78;1.30;;;15.70;83.80;;;;;;6220377;22;20027;-78
2023/04/17 07:27:07;;;;;;;3.03;1.60;;;15.80;83.10;;;;;;6220357;22;20031;-77
2023/04/17 07:29:34;;;;;;;2.38;1.20;;;16.00;83.70;;;;;;6247083;22;20076;-78
2023/04/17 07:32:02;;;;;;;2.83;1.05;;;16.10;83.10;;;;;;6222026;22;20028;-78
2023/04/17 07:34:30;;;;;;;4.95;1.45;;;16.30;82.70;;;;;;6246675;22;20205;-77
2023/04/17 07:36:57;;;;;;;3.03;1.48;;;16.30;82.70;;;;;;6221293;22;20020;-76
2023/04/17 07:39:29;;;;;;;2.25;1.00;;;16.50;83.00;;;;;;6219058;22;20755;-77
2023/04/17 07:41:56;;;;;;;2.45;0.80;;;16.60;83.00;;;;;;6246477;22;20336;-78
2023/04/17 07:44:23;;;;;;;1.65;0.88;;;16.70;82.60;;;;;;6222417;22;20817;-79
2023/04/17 07:46:50;;;;;;;4.38;1.33;;;16.70;82.20;;;;;;6246589;22;20051;-78
2023/04/17 07:49:18;;;;;;;1.63;0.90;;;16.80;83.20;;;;;;6219899;22;20111;-78
2023/04/17 07:51:45;;;;;;;1.83;0.85;;;17.00;82.50;;;;;;6222118;22;20023;-78
2023/04/17 07:54:12;;;;;;;1.88;0.75;;;17.00;81.30;;;;;;6219544;22;20023;-77
2023/04/17 07:56:39;;;;;;;1.55;0.77;;;17.20;82.10;;;;;;6272366;22;20016;-78
2023/04/17 07:59:06;;;;;;;3.45;1.42;;;17.00;80.00;;;;;;6223893;22;20638;-79
2023/04/17 08:01:33;;;;;;;2.80;1.17;;;17.00;79.90;;;;;;6223547;22;20347;-79
2023/04/17 08:04:00;;;;;;;2.72;0.95;;;17.10;80.00;;;;;;6220367;22;20110;-78
2023/04/17 08:06:28;;;;;;;2.33;1.00;;;17.00;79.40;;;;;;6246880;22;20094;-77
2023/04/17 08:08:55;;;;;;;2.00;0.70;;;17.00;79.30;;;;;;6246595;22;20030;-77
2023/04/17 08:11:22;;;;;;;2.67;1.02;;;17.00;80.50;;;;;;6246213;22;20026;-77
2023/04/17 08:13:49;;;;;;;2.17;0.80;;;17.10;80.70;;;;;;6243662;22;20043;-77
2023/04/17 08:16:17;;;;;;;3.85;0.98;;;17.00;79.70;;;;;;6274012;22;20019;-78
2023/04/17 08:18:44;;;;;;;3.83;1.00;;;17.10;79.50;;;;;;6222620;22;20024;-78
2023/04/17 08:21:11;;;;;;;3.95;1.10;;;17.10;79.40;;;;;;6219981;22;20470;-77
2023/04/17 08:23:39;;;;;;;2.60;1.65;;;16.90;79.80;;;;;;6247103;22;20073;-76
2023/04/17 08:26:06;;;;;;;5.78;1.27;;;16.80;80.60;;;;;;6273440;22;20019;-78
2023/04/17 08:28:33;;;;;;;3.67;1.15;;;16.70;80.20;;;;;;6221340;22;20443;-77
2023/04/17 08:31:00;;;;;;;4.65;0.80;;;16.60;80.90;;;;;;6246238;22;20731;-79
2023/04/17 08:33:28;;;;;;;3.20;1.10;;;16.50;82.20;;;;;;6273070;22;20012;-77
2023/04/17 08:35:55;;;;;;;2.83;1.10;;;16.50;82.60;;;;;;6245805;22;20050;-78
2023/04/17 08:38:22;;;;;;;2.65;0.90;;;16.50;83.10;;;;;;6219744;22;20026;-77
2023/04/17 08:40:51;;;;;;;4.53;1.30;;;16.50;83.50;;;;;;6221216;22;20026;-78
2023/04/17 08:43:19;;;;;;;3.28;0.95;;;16.40;83.60;;;;;;6220877;22;20607;-76
2023/04/17 08:45:52;;;;;;;1.92;0.90;;;16.40;83.40;;;;;;6221165;22;20115;-80
2023/04/17 08:48:21;;;;;;;4.03;1.73;;;16.50;83.50;;;;;;6218114;22;20094;-77
2023/04/17 08:50:51;;;;;;;2.92;1.15;;;16.60;82.80;;;;;;6246537;22;20030;-77
2023/04/17 08:53:19;;;;;;;2.80;1.02;;;16.50;83.30;;;;;;6246253;22;20023;-78
2023/04/17 08:55:47;;;;;;;2.55;1.27;;;16.50;83.40;;;;;;6222411;22;20023;-77
2023/04/17 08:58:14;;;;;;;4.30;1.40;;;16.40;83.00;;;;;;6221464;22;20030;-78
2023/04/17 09:00:43;;;;;;;2.58;0.90;;;16.50;83.30;;;;;;6219141;22;20030;-78
2023/04/17 09:03:12;;;;;;;3.08;1.15;;;16.60;83.50;;;;;;6246615;22;20038;-78
2023/04/17 09:05:44;;;;;;;3.13;1.27;;;16.70;83.30;;;;;;6246383;22;20047;-78
2023/04/17 09:08:22;;;;;;;2.38;0.90;;;16.80;83.40;;;;;;6221268;22;20058;-78
2023/04/17 09:10:52;;;;;;;2.15;0.90;;;16.80;82.80;;;;;;6220745;22;20073;-77
2023/04/17 09:13:28;;;;;;;2.10;1.23;;;16.70;83.00;;;;;;6218600;22;20406;-77
2023/04/17 09:16:09;;;;;;;3.85;1.20;;;16.70;82.80;;;;;;6246728;22;20118;-78
2023/04/17 09:18:37;;;;;;;2.67;0.98;;;16.60;84.00;;;;;;6221098;22;20098;-78
2023/04/17 09:21:06;;;;;;;3.17;1.20;;;16.70;83.70;;;;;;6221447;22;20047;-78
2023/04/17 09:23:49;;;;;;;2.03;1.08;;;16.80;83.60;;;;;;6242352;22;20027;-77
2023/04/17 09:26:19;;;;;;;2.92;1.10;;;16.80;83.20;;;;;;6246829;22;20043;-78
2023/04/17 09:29:10;;;;;;;2.88;1.20;;;17.00;83.70;;;;;;6219630;22;20023;-76
2023/04/17 09:31:40;;;;;;;2.85;0.90;;;17.00;83.00;;;;;;6221343;22;20023;-77
2023/04/17 09:34:12;;;;;;;4.07;0.95;;;17.00;81.80;;;;;;6245647;22;20402;-77
2023/04/17 09:36:42;;;;;;;4.65;1.20;;;17.10;82.20;;;;;;6246390;22;20054;-79
2023/04/17 09:39:22;;;;;;;2.17;1.00;;;17.10;82.20;;;;;;6245581;22;20019;-77
2023/04/17 09:41:59;;;;;;;1.95;1.20;;;17.00;81.10;;;;;;6273522;22;20440;-78
2023/04/17 09:44:29;;;;;;;1.65;0.95;;;16.90;82.30;;;;;;6222102;22;20398;-78
2023/04/17 09:46:56;;;;;;;2.33;1.20;;;16.90;81.30;;;;;;6221964;22;20019;-79
2023/04/17 09:49:38;;;;;;;2.38;0.95;;;16.80;81.20;;;;;;6221792;22;20556;-78
2023/04/17 09:52:06;;;;;;;3.28;1.23;;;16.90;81.80;;;;;;6218980;22;20466;-78
2023/04/17 09:54:36;;;;;;;3.63;1.30;;;16.80;81.80;;;;;;6217613;22;20473;-79
2023/04/17 09:57:08;;;;;;;2.63;1.30;;;16.80;81.90;;;;;;6212563;22;20020;-78
2023/04/17 09:59:40;;;;;;;3.63;1.20;;;16.80;81.40;;;;;;6232905;22;20061;-78
2023/04/17 10:02:10;;;;;;;2.20;1.10;;;16.70;81.50;;;;;;6232485;22;20553;-78
2023/04/17 10:04:41;;;;;;;2.72;1.48;;;16.70;81.80;;;;;;6219234;22;20023;-78
2023/04/17 10:07:11;;;;;;;2.53;0.70;;;16.80;82.00;;;;;;6219283;22;20019;-77
2023/04/17 10:09:44;;;;;;;1.98;0.95;;;16.90;81.70;;;;;;6217797;22;20088;-77
2023/04/17 10:12:16;;;;;;;2.17;1.20;;;16.80;80.40;;;;;;6245909;22;20066;-78
2023/04/17 10:14:47;;;;;;;2.92;0.93;;;16.80;80.80;;;;;;6217248;22;20026;-79
2023/04/17 10:17:30;;;;;;;4.15;1.02;;;16.80;80.70;;;;;;6218437;22;20015;-78
2023/04/17 10:20:18;;;;;;;3.47;0.90;;;16.80;80.70;;;;;;6244646;22;20015;-78
2023/04/17 10:22:52;;;;;;;2.45;1.23;;;17.00;80.40;;;;;;6221086;22;20023;-79
2023/04/17 10:25:24;;;;;;;2.65;1.20;;;17.10;81.50;;;;;;6247570;22;20027;-77
2023/04/17 10:27:58;;;;;;;3.38;0.68;;;17.10;79.80;;;;;;6219910;22;20054;-78
2023/04/17 10:30:50;;;;;;;3.47;1.05;;;17.00;79.60;;;;;;6220505;22;20027;-78
2023/04/17 10:33:20;;;;;;;3.00;1.20;;;17.20;79.60;;;;;;6245638;22;20039;-78
2023/04/17 10:35:48;;;;;;;2.03;0.98;;;17.40;79.80;;;;;;6245630;22;20023;-78
2023/04/17 10:38:17;;;;;;;3.83;1.20;;;17.50;79.80;;;;;;6220585;22;20026;-78
2023/04/17 10:40:44;;;;;;;3.15;1.40;;;17.40;80.40;;;;;;6245575;22;20015;-80
2023/04/17 10:43:12;;;;;;;5.10;1.55;;;17.40;80.80;;;;;;6219721;22;20031;-78
2023/04/17 10:46:04;;;;;;;3.72;1.35;;;17.30;81.50;;;;;;6220722;22;20474;-78
2023/04/17 10:48:44;;;;;;;2.92;1.30;;;17.20;80.10;;;;;;6244599;22;20409;-78
2023/04/17 10:51:25;;;;;;;5.30;1.45;;;17.20;81.00;;;;;;6244726;22;20027;-80
2023/04/17 10:54:00;;;;;;;2.95;1.60;;;17.30;81.10;;;;;;6220585;22;20050;-80
2023/04/17 10:56:29;;;;;;;5.95;2.00;;;17.30;80.50;;;;;;6244837;22;20022;-80
2023/04/17 10:59:02;;;;;;;4.97;1.67;;;17.50;80.40;;;;;;6246184;22;20020;-77
2023/04/17 11:01:48;;;;;;;3.35;1.42;;;17.70;79.50;;;;;;6223323;22;20569;-78
2023/04/17 11:04:27;;;;;;;2.55;1.50;;;17.80;77.60;;;;;;6222472;22;20074;-79
2023/04/17 11:06:54;;;;;;;2.13;1.63;;;17.90;77.90;;;;;;6222128;22;20028;-80
2023/04/17 11:09:26;;;;;;;1.83;1.27;;;18.00;78.80;;;;;;6221844;22;20020;-78
2023/04/17 11:11:57;;;;;;;3.50;1.58;;;18.10;77.10;;;;;;6221858;22;20031;-78
2023/04/17 11:14:25;;;;;;;2.22;1.35;;;18.10;76.80;;;;;;6222403;22;20039;-78
2023/04/17 11:16:52;;;;;;;3.42;1.70;;;18.20;77.30;;;;;;6244494;22;20162;-79
2023/04/17 11:19:24;;;;;;;2.97;2.05;;;18.10;75.90;;;;;;6222792;22;20517;-79
2023/04/17 11:21:53;;;;;;;6.50;2.60;;;18.00;76.80;;;;;;6222256;22;20031;-77
2023/04/17 11:24:30;;;;;;;5.90;2.38;;;17.90;77.10;;;;;;6222199;22;20687;-78
2023/04/17 11:26:59;;;;;;;5.30;1.80;;;17.80;77.60;;;;;;6274974;22;20070;-77
2023/04/17 11:29:27;;;;;;;3.88;1.85;;;17.70;78.70;;;;;;6248429;22;20062;-78
2023/04/17 11:31:56;;;;;;;4.25;1.60;;;17.70;79.70;;;;;;6219415;22;20019;-78
2023/04/17 11:34:25;;;;;;;3.97;1.58;;;17.50;79.90;;;;;;6246520;22;20015;-77
2023/04/17 11:36:56;;;;;;;7.20;2.47;;;17.50;80.20;;;;;;6246773;22;20065;-79
2023/04/17 11:39:31;;;;;;;4.85;1.95;;;17.40;80.10;;;;;;6217504;22;20086;-78
2023/04/17 11:42:01;;;;;;;8.15;3.53;;;17.50;81.00;;;;;;6245111;22;20340;-78
2023/04/17 11:44:28;;;;;;;3.03;1.58;;;17.40;81.10;;;;;;6221019;22;20030;-78
2023/04/17 11:46:59;;;;;;;4.13;1.50;;;17.40;81.60;;;;;;6221104;22;20030;-78
2023/04/17 11:49:28;;;;;;;4.75;2.03;;;17.40;81.60;;;;;;6220796;22;20024;-78
2023/04/17 11:51:58;;;;;;;6.00;2.60;;;17.30;82.20;;;;;;6244999;22;20023;-77
2023/04/17 11:54:37;;;;;;;9.05;3.83;;;17.20;81.90;;;;;;6222291;22;20474;-79
2023/04/17 11:57:10;;;;;;;9.15;2.35;;;17.10;81.30;;;;;;6246578;22;20023;-78
2023/04/17 11:59:40;;;;;;;6.53;4.28;;;17.10;82.30;;;;;;6246408;22;20867;-79
2023/04/17 12:02:08;;;;;;;6.15;3.60;;;17.00;81.80;;;;;;6221460;22;20023;-79
2023/04/17 12:04:38;;;;;;;3.90;2.03;;;16.90;81.50;;;;;;6221505;22;20058;-77
2023/04/17 12:07:07;;;;;;;2.83;1.95;;;16.80;82.20;;;;;;6222216;22;20023;-78
2023/04/17 12:09:34;;;;;;;5.40;2.55;;;16.80;82.20;;;;;;6221340;22;20019;-78
2023/04/17 12:12:06;;;;;;;6.05;2.25;;;16.70;81.80;;;;;;6220980;22;20027;-78
2023/04/17 12:14:34;;;;;;;2.63;1.65;;;16.70;82.80;;;;;;6221583;22;20020;-78
2023/04/17 12:17:02;;;;;;;3.13;1.60;;;16.60;82.70;;;;;;6249271;22;20427;-78
2023/04/17 12:19:30;;;;;;;2.85;1.63;;;16.50;83.40;;;;;;6222705;22;20355;-79
2023/04/17 12:21:58;;;;;;;3.78;1.70;;;16.50;83.70;;;;;;6245617;22;20019;-78
2023/04/17 12:24:25;;;;;;;2.78;1.60;;;16.50;83.10;;;;;;6222418;22;20024;-79
2023/04/17 12:26:53;;;;;;;4.25;2.00;;;16.50;83.10;;;;;;6222899;22;20093;-79
2023/04/17 12:29:20;;;;;;;2.72;1.50;;;16.50;82.40;;;;;;6223317;22;20050;-78
2023/04/17 12:32:09;;;;;;;4.75;2.22;;;16.50;83.40;;;;;;6227996;22;20015;-78
2023/04/17 12:34:36;;;;;;;3.58;2.13;;;16.40;82.50;;;;;;6222286;22;20416;-77
2023/04/17 12:37:04;;;;;;;4.65;1.90;;;16.40;82.80;;;;;;6221870;22;20020;-78
2023/04/17 12:39:32;;;;;;;3.17;1.58;;;16.40;82.40;;;;;;6220533;22;20085;-78
2023/04/17 12:41:59;;;;;;;3.10;1.65;;;16.40;82.40;;;;;;6222184;22;20039;-78
2023/04/17 12:44:26;;;;;;;4.35;1.60;;;16.40;82.90;;;;;;6246713;22;20024;-78
2023/04/17 12:46:53;;;;;;;2.95;1.60;;;16.40;82.60;;;;;;6221173;22;20023;-78
2023/04/17 12:49:22;;;;;;;2.05;1.50;;;16.40;82.20;;;;;;6222519;22;20118;-78
2023/04/17 12:51:50;;;;;;;2.83;1.77;;;16.40;82.40;;;;;;6221449;22;20110;-78
2023/04/17 12:54:17;;;;;;;5.00;2.03;;;16.50;83.30;;;;;;6243793;22;20578;-78
2023/04/17 12:56:44;;;;;;;3.15;1.48;;;16.50;83.80;;;;;;6245300;22;20030;-78
2023/04/17 12:59:11;;;;;;;4.88;1.85;;;16.60;82.60;;;;;;6246574;22;20467;-79